Time;durP1;ratioP1;P1;durP2;ratioP2;P2;SDS_P1;SDS_P2;PMS_P1;PMS_P2;Temp;Humidity;BMP_temperature;BMP_pressure;BME280_temperature;BME280_humidity;BME280_pressure;Samples;Min_cycle;Max_cycle;Signal;HPM_P1;HPM_P2
2021/07/16 00:01:22;;;;;;;3.97;2.75;;;20.80;71.70;;;;;;4997373;28;20073;-79
2021/07/16 00:03:48;;;;;;;3.58;2.67;;;20.70;71.70;;;;;;4980043;28;20483;-79
2021/07/16 00:06:14;;;;;;;3.08;2.42;;;20.80;71.70;;;;;;4996318;28;20038;-79
2021/07/16 00:08:39;;;;;;;3.72;2.40;;;20.80;71.70;;;;;;4963373;28;20058;-79
2021/07/16 00:11:05;;;;;;;3.38;2.40;;;20.70;71.60;;;;;;4963927;28;20041;-79
2021/07/16 00:13:31;;;;;;;3.80;2.50;;;20.70;71.70;;;;;;4996638;28;20030;-80
2021/07/16 00:15:57;;;;;;;3.47;2.40;;;20.70;71.60;;;;;;4963561;28;20560;-79
2021/07/16 00:18:23;;;;;;;3.15;2.50;;;20.70;71.60;;;;;;4963592;28;20062;-79
2021/07/16 00:20:48;;;;;;;3.75;2.60;;;20.70;71.60;;;;;;4995839;28;20042;-79
2021/07/16 00:23:15;;;;;;;3.10;2.40;;;20.70;71.60;;;;;;4995847;28;20030;-79
2021/07/16 00:25:41;;;;;;;3.10;2.20;;;20.70;71.60;;;;;;4979207;28;20031;-79
2021/07/16 00:28:09;;;;;;;3.63;2.40;;;20.70;71.60;;;;;;4980095;28;20169;-79
2021/07/16 00:30:36;;;;;;;4.55;2.65;;;20.70;71.70;;;;;;4996149;28;20514;-79
2021/07/16 00:33:03;;;;;;;3.55;2.45;;;20.60;71.60;;;;;;4979333;28;20041;-79
2021/07/16 00:35:28;;;;;;;3.45;2.40;;;20.70;71.70;;;;;;4996400;28;20026;-80
2021/07/16 00:37:54;;;;;;;3.22;2.40;;;20.60;71.60;;;;;;4979857;28;20447;-79
2021/07/16 00:40:21;;;;;;;3.58;2.40;;;20.60;71.60;;;;;;4979121;28;20080;-79
2021/07/16 00:42:47;;;;;;;4.32;2.67;;;20.60;71.60;;;;;;4979298;28;20120;-79
2021/07/16 00:45:14;;;;;;;3.67;2.60;;;20.60;71.60;;;;;;4964088;28;20057;-78
2021/07/16 00:47:44;;;;;;;3.33;2.50;;;20.60;71.60;;;;;;4963247;28;20034;-79
2021/07/16 00:50:14;;;;;;;3.08;2.20;;;20.60;71.70;;;;;;4979501;28;20030;-79
2021/07/16 00:52:42;;;;;;;4.07;2.53;;;20.60;71.70;;;;;;4979511;28;20081;-79
2021/07/16 00:55:09;;;;;;;3.35;2.60;;;20.60;71.60;;;;;;4979234;28;20033;-78
2021/07/16 00:57:35;;;;;;;3.55;2.42;;;20.60;71.60;;;;;;4978815;28;20373;-79
2021/07/16 01:00:03;;;;;;;3.42;2.40;;;20.60;71.70;;;;;;4978759;28;20037;-79
2021/07/16 01:02:29;;;;;;;4.30;2.50;;;20.60;71.70;;;;;;4962678;28;20066;-79
2021/07/16 01:04:56;;;;;;;3.42;2.38;;;20.50;71.60;;;;;;4978889;28;20030;-79
2021/07/16 01:07:21;;;;;;;3.95;2.67;;;20.50;71.70;;;;;;4978237;28;20489;-79
2021/07/16 01:09:50;;;;;;;3.97;2.53;;;20.50;71.60;;;;;;4978772;28;20035;-79
2021/07/16 01:12:17;;;;;;;3.70;2.60;;;20.50;71.60;;;;;;4979212;28;20034;-79
2021/07/16 01:14:43;;;;;;;5.43;2.67;;;20.50;71.60;;;;;;4978993;28;20046;-78
2021/07/16 01:17:09;;;;;;;4.30;2.65;;;20.50;71.70;;;;;;4962779;28;20045;-79
2021/07/16 01:19:55;;;;;;;3.80;2.53;;;20.50;71.70;;;;;;4995764;28;20113;-79
2021/07/16 01:22:25;;;;;;;3.92;2.17;;;20.50;71.80;;;;;;4963127;28;20443;-79
2021/07/16 01:24:51;;;;;;;4.10;2.47;;;20.50;71.70;;;;;;4994598;28;20034;-79
2021/07/16 01:27:20;;;;;;;3.53;2.42;;;20.50;71.70;;;;;;4978502;28;20037;-79
2021/07/16 01:29:49;;;;;;;4.45;3.15;;;20.40;71.70;;;;;;4994660;28;20030;-79
2021/07/16 01:32:17;;;;;;;2.63;2.40;;;20.40;71.70;;;;;;4978344;28;20030;-79
2021/07/16 01:34:44;;;;;;;3.65;2.70;;;20.50;71.70;;;;;;4977943;28;20040;-78
2021/07/16 01:37:09;;;;;;;4.78;2.75;;;20.40;71.70;;;;;;4995350;28;20088;-78
2021/07/16 01:39:37;;;;;;;4.00;2.60;;;20.40;71.70;;;;;;4978723;28;20455;-78
2021/07/16 01:42:05;;;;;;;4.07;2.47;;;20.40;71.70;;;;;;4978261;28;20026;-78
2021/07/16 01:44:32;;;;;;;4.13;2.70;;;20.40;71.70;;;;;;4978196;28;20117;-79
2021/07/16 01:46:58;;;;;;;4.88;2.75;;;20.40;71.70;;;;;;4977912;28;20117;-79
2021/07/16 01:49:24;;;;;;;5.28;2.88;;;20.40;71.70;;;;;;4978589;28;20057;-79
2021/07/16 01:51:50;;;;;;;3.53;2.50;;;20.40;71.70;;;;;;4961855;28;20470;-79
2021/07/16 01:54:17;;;;;;;4.28;2.90;;;20.40;71.70;;;;;;4977873;28;20027;-78
2021/07/16 01:56:43;;;;;;;4.13;2.65;;;20.40;71.70;;;;;;4994585;28;20038;-79
2021/07/16 01:59:09;;;;;;;4.85;3.08;;;20.40;71.70;;;;;;4994015;28;20038;-78
2021/07/16 02:01:35;;;;;;;3.85;2.75;;;20.40;71.70;;;;;;4977613;28;20072;-79
2021/07/16 02:04:01;;;;;;;4.35;2.90;;;20.40;71.60;;;;;;4977687;28;20035;-79
2021/07/16 02:06:27;;;;;;;4.65;3.08;;;20.40;71.60;;;;;;4993883;28;20041;-79
2021/07/16 02:08:53;;;;;;;3.95;2.53;;;20.40;71.70;;;;;;4993984;28;20027;-80
2021/07/16 02:11:21;;;;;;;4.88;3.00;;;20.40;71.70;;;;;;4961001;28;20100;-79
2021/07/16 02:13:49;;;;;;;3.90;3.08;;;20.30;71.60;;;;;;4961866;28;20074;-79
2021/07/16 02:16:16;;;;;;;4.20;2.85;;;20.30;71.60;;;;;;4960696;28;20058;-78
2021/07/16 02:18:56;;;;;;;4.88;3.17;;;20.30;71.60;;;;;;4976612;28;20092;-78
2021/07/16 02:21:22;;;;;;;3.50;2.40;;;20.30;71.70;;;;;;4994676;28;20030;-79
2021/07/16 02:23:48;;;;;;;4.53;3.15;;;20.30;71.60;;;;;;4994924;28;20118;-78
2021/07/16 02:26:15;;;;;;;4.55;3.00;;;20.30;71.70;;;;;;4961092;28;20039;-79
2021/07/16 02:28:42;;;;;;;5.13;2.92;;;20.30;71.60;;;;;;4977457;28;20038;-79
2021/07/16 02:31:10;;;;;;;3.38;2.70;;;20.30;71.60;;;;;;4994313;28;20058;-79
2021/07/16 02:33:36;;;;;;;5.03;2.97;;;20.30;71.60;;;;;;4994706;28;20019;-79
2021/07/16 02:36:06;;;;;;;4.30;3.08;;;20.30;71.60;;;;;;4994373;28;20084;-78
2021/07/16 02:38:33;;;;;;;5.25;3.30;;;20.30;71.60;;;;;;4961231;28;20030;-78
2021/07/16 02:40:58;;;;;;;4.90;3.40;;;20.30;71.60;;;;;;4977187;28;20217;-78
2021/07/16 02:43:25;;;;;;;5.18;3.60;;;20.20;71.50;;;;;;4994307;28;20146;-79
2021/07/16 02:45:51;;;;;;;4.68;2.85;;;20.30;71.60;;;;;;4977905;28;20482;-79
2021/07/16 02:48:17;;;;;;;5.15;2.90;;;20.30;71.50;;;;;;4977288;28;20069;-79
2021/07/16 02:50:45;;;;;;;4.80;3.17;;;20.30;71.50;;;;;;4993209;28;20022;-78
2021/07/16 02:53:13;;;;;;;3.70;2.67;;;20.20;71.50;;;;;;4976487;28;20031;-79
2021/07/16 02:55:40;;;;;;;5.88;3.20;;;20.20;71.50;;;;;;4976852;28;20057;-79
2021/07/16 02:58:06;;;;;;;5.00;3.00;;;20.20;71.40;;;;;;4960934;28;20467;-79
2021/07/16 03:00:32;;;;;;;4.65;2.95;;;20.20;71.50;;;;;;4960751;28;20030;-78
2021/07/16 03:02:59;;;;;;;4.65;2.80;;;20.20;71.50;;;;;;4976701;28;20039;-79
2021/07/16 03:05:29;;;;;;;4.35;2.72;;;20.20;71.50;;;;;;4976810;28;20026;-79
2021/07/16 03:07:59;;;;;;;4.95;2.90;;;20.20;71.50;;;;;;4976876;28;20113;-78
2021/07/16 03:10:34;;;;;;;4.57;2.78;;;20.20;71.40;;;;;;4992906;28;20018;-79
2021/07/16 03:13:05;;;;;;;4.63;2.83;;;20.20;71.50;;;;;;4994072;28;20034;-79
2021/07/16 03:15:32;;;;;;;4.60;2.78;;;20.20;71.50;;;;;;4960218;28;20057;-79
2021/07/16 03:17:58;;;;;;;3.97;2.88;;;20.10;72.10;;;;;;4976819;28;20035;-79
2021/07/16 03:20:27;;;;;;;3.83;2.88;;;20.10;71.40;;;;;;4960790;28;20065;-79
2021/07/16 03:22:53;;;;;;;3.78;2.60;;;20.10;71.40;;;;;;4993977;28;20054;-79
2021/07/16 03:25:20;;;;;;;5.43;2.80;;;20.10;71.40;;;;;;4977029;28;20100;-78
2021/07/16 03:27:47;;;;;;;3.92;2.80;;;20.10;71.40;;;;;;4993176;28;20061;-79
2021/07/16 03:30:22;;;;;;;4.45;3.00;;;20.10;71.40;;;;;;4995693;28;20022;-79
2021/07/16 03:32:48;;;;;;;4.03;3.05;;;20.10;71.40;;;;;;4980965;28;20053;-80
2021/07/16 03:35:14;;;;;;;4.15;2.67;;;20.10;71.30;;;;;;4980749;28;20389;-79
2021/07/16 03:37:41;;;;;;;4.53;2.72;;;20.10;71.30;;;;;;4965374;28;20038;-79
2021/07/16 03:40:10;;;;;;;4.13;2.75;;;20.10;71.40;;;;;;4980535;28;20097;-78
2021/07/16 03:42:36;;;;;;;4.80;3.10;;;20.10;71.30;;;;;;4980404;28;20026;-79
2021/07/16 03:45:07;;;;;;;4.03;2.67;;;20.10;71.30;;;;;;4964170;28;20451;-79
2021/07/16 03:47:33;;;;;;;3.47;2.53;;;20.10;71.40;;;;;;4996251;28;20042;-79
2021/07/16 03:49:59;;;;;;;3.63;2.75;;;20.10;71.30;;;;;;4980764;28;20030;-79
2021/07/16 03:52:25;;;;;;;3.80;2.58;;;20.10;71.30;;;;;;4980498;28;20497;-79
2021/07/16 03:54:51;;;;;;;3.65;2.55;;;20.00;71.20;;;;;;4998155;28;20053;-78
2021/07/16 03:57:17;;;;;;;4.10;2.53;;;20.00;71.20;;;;;;4964777;28;20037;-79
2021/07/16 03:59:43;;;;;;;3.78;2.75;;;20.00;71.20;;;;;;4997655;28;20027;-79
2021/07/16 04:02:08;;;;;;;5.10;3.03;;;20.00;71.20;;;;;;4963998;28;20135;-79
2021/07/16 04:04:34;;;;;;;4.30;2.70;;;20.00;71.20;;;;;;4996606;28;20041;-78
2021/07/16 04:07:01;;;;;;;4.50;2.72;;;20.00;71.20;;;;;;4979989;28;20035;-78
2021/07/16 04:09:29;;;;;;;4.07;2.47;;;20.00;71.20;;;;;;4997268;28;20053;-79
2021/07/16 04:12:16;;;;;;;5.03;2.92;;;20.00;71.30;;;;;;4979825;28;20014;-78
2021/07/16 04:14:47;;;;;;;4.00;2.75;;;20.00;71.40;;;;;;4979547;28;20054;-79
2021/07/16 04:17:16;;;;;;;4.57;2.92;;;20.00;71.20;;;;;;4979868;28;20034;-79
2021/07/16 04:19:43;;;;;;;3.78;2.53;;;19.90;71.20;;;;;;4963572;28;20125;-79
2021/07/16 04:22:10;;;;;;;4.05;2.40;;;19.90;71.20;;;;;;4979494;28;20040;-78
2021/07/16 04:24:37;;;;;;;4.15;2.75;;;19.90;71.20;;;;;;4995964;28;20027;-79
2021/07/16 04:27:04;;;;;;;4.82;2.70;;;19.90;71.40;;;;;;4996239;28;20030;-78
2021/07/16 04:29:30;;;;;;;4.50;3.05;;;19.90;71.30;;;;;;4979664;28;20035;-79
2021/07/16 04:31:58;;;;;;;4.43;2.72;;;19.90;71.30;;;;;;4962724;28;20026;-79
2021/07/16 04:34:24;;;;;;;4.28;2.53;;;19.90;71.20;;;;;;4979015;28;20121;-79
2021/07/16 04:36:50;;;;;;;5.07;2.70;;;19.90;71.30;;;;;;4963171;28;20065;-79
2021/07/16 04:39:15;;;;;;;4.13;2.72;;;19.90;71.30;;;;;;4979169;28;20066;-79
2021/07/16 04:41:41;;;;;;;4.38;2.38;;;19.80;71.20;;;;;;4995212;28;20084;-80
2021/07/16 04:44:07;;;;;;;5.57;2.47;;;19.90;71.30;;;;;;4979124;28;20062;-78
2021/07/16 04:46:33;;;;;;;4.05;2.42;;;19.80;71.20;;;;;;4979183;28;20034;-78
2021/07/16 04:48:59;;;;;;;3.83;2.53;;;19.80;71.20;;;;;;4962735;28;20061;-79
2021/07/16 04:51:33;;;;;;;3.67;2.50;;;19.80;71.20;;;;;;4994996;28;20030;-79
2021/07/16 04:54:00;;;;;;;5.63;2.65;;;19.80;71.30;;;;;;4995064;28;20061;-79
2021/07/16 04:56:27;;;;;;;4.07;2.22;;;19.80;71.20;;;;;;4978439;28;20030;-80
2021/07/16 04:58:53;;;;;;;4.40;2.40;;;19.80;71.20;;;;;;4978584;28;20045;-78
2021/07/16 05:01:21;;;;;;;3.08;2.15;;;19.80;71.30;;;;;;4978975;28;20081;-78
2021/07/16 05:03:49;;;;;;;5.30;2.50;;;19.90;71.40;;;;;;4978882;28;20026;-79
2021/07/16 05:06:15;;;;;;;4.05;2.60;;;19.80;71.30;;;;;;4962546;28;20467;-79
2021/07/16 05:08:41;;;;;;;4.63;2.25;;;19.80;71.30;;;;;;4978911;28;20037;-79
2021/07/16 05:11:08;;;;;;;3.58;2.50;;;19.80;71.30;;;;;;4996200;28;20463;-79
2021/07/16 05:13:38;;;;;;;3.92;2.30;;;19.80;71.30;;;;;;4996086;28;20029;-80
2021/07/16 05:16:09;;;;;;;3.92;2.30;;;19.80;71.30;;;;;;4977916;28;20447;-79
2021/07/16 05:18:35;;;;;;;3.92;2.33;;;19.80;71.30;;;;;;4978073;28;20034;-78
2021/07/16 05:21:03;;;;;;;4.18;2.28;;;19.80;71.30;;;;;;4978643;28;20030;-80
2021/07/16 05:23:29;;;;;;;3.45;2.40;;;19.80;71.30;;;;;;4994885;28;20031;-79
2021/07/16 05:25:55;;;;;;;4.65;2.72;;;19.80;71.40;;;;;;4995580;28;20371;-80
2021/07/16 05:28:21;;;;;;;4.30;2.47;;;19.80;71.40;;;;;;4994333;28;20038;-80
2021/07/16 05:30:48;;;;;;;3.78;2.22;;;19.80;71.30;;;;;;4978599;28;20027;-79
2021/07/16 05:33:15;;;;;;;4.63;2.38;;;19.80;71.40;;;;;;4995445;28;20081;-79
2021/07/16 05:35:41;;;;;;;4.15;2.40;;;19.80;71.40;;;;;;4994663;28;20030;-79
2021/07/16 05:38:10;;;;;;;3.55;2.13;;;19.80;71.40;;;;;;4978807;28;20049;-80
2021/07/16 05:40:38;;;;;;;3.45;2.28;;;19.80;71.40;;;;;;4995482;28;20081;-80
2021/07/16 05:43:09;;;;;;;4.97;2.22;;;19.80;71.40;;;;;;4978236;28;20031;-80
2021/07/16 05:45:36;;;;;;;4.03;2.22;;;19.80;71.50;;;;;;4994695;28;20138;-80
2021/07/16 05:48:04;;;;;;;3.90;2.63;;;19.80;71.40;;;;;;4995502;28;20027;-80
2021/07/16 05:50:29;;;;;;;4.43;2.45;;;19.80;71.40;;;;;;4978171;28;20479;-80
2021/07/16 05:52:55;;;;;;;4.43;2.33;;;19.70;71.40;;;;;;4978665;28;20046;-80
2021/07/16 05:55:22;;;;;;;4.75;2.20;;;19.80;71.40;;;;;;4978688;28;20039;-80
2021/07/16 05:57:48;;;;;;;3.70;2.13;;;19.80;71.40;;;;;;4978041;28;20026;-81
2021/07/16 06:00:15;;;;;;;3.72;2.15;;;19.80;71.40;;;;;;4978335;28;20033;-80
2021/07/16 06:02:40;;;;;;;5.30;2.22;;;19.80;71.40;;;;;;4961448;28;20033;-80
2021/07/16 06:05:06;;;;;;;4.38;1.92;;;19.80;71.40;;;;;;4994688;28;20038;-80
2021/07/16 06:07:32;;;;;;;4.03;2.00;;;19.80;71.40;;;;;;4978414;28;20089;-79
2021/07/16 06:09:58;;;;;;;3.58;2.25;;;19.80;72.00;;;;;;4978028;28;20034;-80
2021/07/16 06:12:24;;;;;;;2.75;2.00;;;19.80;71.40;;;;;;4977983;28;20026;-80
2021/07/16 06:14:56;;;;;;;3.50;2.25;;;19.80;71.40;;;;;;4994750;28;20100;-79
2021/07/16 06:17:23;;;;;;;3.85;2.20;;;19.80;71.40;;;;;;4977584;28;20467;-79
2021/07/16 06:19:49;;;;;;;3.60;2.10;;;19.80;71.30;;;;;;4961788;28;20030;-79
2021/07/16 06:22:15;;;;;;;4.13;2.30;;;19.90;71.40;;;;;;4977874;28;20034;-80
2021/07/16 06:24:41;;;;;;;3.63;2.00;;;19.90;71.40;;;;;;4977959;28;20033;-80
2021/07/16 06:27:07;;;;;;;5.18;2.50;;;19.90;71.40;;;;;;4994215;28;20030;-79
2021/07/16 06:29:33;;;;;;;3.15;2.10;;;19.90;71.40;;;;;;4977411;28;20080;-79
2021/07/16 06:31:59;;;;;;;3.38;1.95;;;20.00;71.40;;;;;;4993744;28;20045;-79
2021/07/16 06:34:25;;;;;;;7.43;2.45;;;19.90;71.30;;;;;;4977323;28;20029;-80
2021/07/16 06:36:51;;;;;;;3.33;2.08;;;19.90;71.30;;;;;;4977258;28;20069;-78
2021/07/16 06:39:17;;;;;;;3.80;2.30;;;19.90;71.30;;;;;;4977414;28;20030;-79
2021/07/16 06:41:42;;;;;;;3.97;2.10;;;20.00;71.30;;;;;;4993216;28;20030;-79
2021/07/16 06:44:10;;;;;;;2.90;2.05;;;20.00;71.30;;;;;;4977282;28;20030;-79
2021/07/16 06:46:36;;;;;;;3.80;2.35;;;20.00;71.30;;;;;;4977205;28;20031;-79
2021/07/16 06:49:03;;;;;;;5.18;2.17;;;20.00;71.30;;;;;;4993270;28;20390;-79
2021/07/16 06:51:30;;;;;;;4.00;2.10;;;20.00;71.30;;;;;;4993313;28;20476;-79
2021/07/16 06:53:57;;;;;;;3.25;1.90;;;20.00;71.20;;;;;;4993437;28;20356;-80
2021/07/16 06:56:23;;;;;;;4.70;2.10;;;20.00;71.30;;;;;;4977174;28;20403;-79
2021/07/16 06:58:51;;;;;;;3.53;1.77;;;20.10;71.30;;;;;;4977160;28;20044;-81
2021/07/16 07:01:20;;;;;;;3.78;2.42;;;20.00;71.20;;;;;;4994431;28;20034;-79
2021/07/16 07:03:47;;;;;;;5.93;1.98;;;20.00;71.20;;;;;;4993255;28;20027;-79
2021/07/16 07:06:12;;;;;;;4.15;1.90;;;20.10;71.20;;;;;;4976314;28;20034;-78
2021/07/16 07:08:39;;;;;;;4.45;1.98;;;20.10;71.20;;;;;;4977302;28;20541;-79
2021/07/16 07:11:05;;;;;;;2.80;1.90;;;20.10;71.20;;;;;;4994321;28;20081;-79
2021/07/16 07:13:31;;;;;;;3.95;2.15;;;20.10;71.20;;;;;;4960644;28;20053;-78
2021/07/16 07:15:58;;;;;;;3.78;2.10;;;20.10;71.10;;;;;;4992969;28;20050;-78
2021/07/16 07:18:24;;;;;;;5.00;2.22;;;20.10;71.10;;;;;;4993765;28;20475;-78
2021/07/16 07:20:51;;;;;;;3.65;1.85;;;20.20;71.20;;;;;;4976949;28;20030;-78
2021/07/16 07:23:17;;;;;;;3.47;2.00;;;20.20;71.20;;;;;;4976689;28;20049;-78
2021/07/16 07:25:42;;;;;;;4.78;2.13;;;20.20;71.10;;;;;;4976943;28;20026;-78
2021/07/16 07:28:08;;;;;;;3.50;1.67;;;20.20;71.10;;;;;;4992811;28;20129;-78
2021/07/16 07:30:34;;;;;;;3.83;1.90;;;20.20;71.10;;;;;;4977423;28;20093;-78
2021/07/16 07:33:00;;;;;;;4.45;2.15;;;20.20;71.10;;;;;;4961595;28;20053;-79
2021/07/16 07:35:26;;;;;;;3.58;1.95;;;20.30;71.10;;;;;;4977288;28;20372;-78
2021/07/16 07:37:51;;;;;;;4.03;1.80;;;20.20;71.10;;;;;;4993732;28;20145;-79
2021/07/16 07:40:18;;;;;;;4.60;2.05;;;20.30;71.10;;;;;;4977890;28;20465;-78
2021/07/16 07:42:44;;;;;;;3.58;1.88;;;20.30;71.10;;;;;;4993779;28;20026;-78
2021/07/16 07:45:11;;;;;;;4.43;1.95;;;20.30;71.10;;;;;;4994741;28;20142;-79
2021/07/16 07:47:37;;;;;;;3.72;2.10;;;20.30;71.10;;;;;;4993932;28;20023;-78
2021/07/16 07:50:06;;;;;;;3.70;1.90;;;20.30;71.00;;;;;;4976172;28;20041;-78
2021/07/16 07:52:32;;;;;;;5.63;2.50;;;20.30;71.10;;;;;;4993851;28;20065;-78
2021/07/16 07:54:59;;;;;;;3.50;1.95;;;20.30;71.00;;;;;;4976412;28;20037;-78
2021/07/16 07:57:24;;;;;;;3.13;1.80;;;20.40;71.00;;;;;;4993715;28;20085;-78
2021/07/16 07:59:51;;;;;;;5.15;2.30;;;20.40;71.00;;;;;;4976450;28;20054;-78
2021/07/16 08:02:17;;;;;;;4.35;2.35;;;20.40;71.00;;;;;;4993706;28;20030;-78
2021/07/16 08:04:43;;;;;;;3.30;2.00;;;20.40;70.90;;;;;;4976655;28;20034;-78
2021/07/16 08:07:09;;;;;;;5.05;2.30;;;20.40;70.90;;;;;;4976982;28;20061;-78
2021/07/16 08:09:34;;;;;;;3.80;1.88;;;20.40;70.90;;;;;;4976370;28;20062;-78
2021/07/16 08:12:02;;;;;;;4.03;2.25;;;20.40;70.90;;;;;;4976455;28;20081;-78
2021/07/16 08:14:28;;;;;;;4.20;1.85;;;20.40;70.90;;;;;;4992355;28;20043;-78
2021/07/16 08:16:53;;;;;;;5.47;2.38;;;20.50;71.00;;;;;;4976667;28;20097;-79
2021/07/16 08:19:20;;;;;;;4.85;2.10;;;20.50;70.90;;;;;;4980064;28;20416;-80
2021/07/16 08:21:46;;;;;;;3.60;2.00;;;20.50;70.90;;;;;;4979801;28;20037;-79
2021/07/16 08:24:12;;;;;;;3.92;1.90;;;20.50;70.90;;;;;;4979417;28;20034;-78
2021/07/16 08:26:38;;;;;;;4.97;2.00;;;20.50;70.80;;;;;;4979449;28;20551;-77
2021/07/16 08:29:04;;;;;;;4.07;2.20;;;20.60;70.90;;;;;;4979574;28;20130;-83
2021/07/16 08:31:30;;;;;;;4.07;1.90;;;20.60;70.90;;;;;;4963763;28;20117;-79
2021/07/16 08:33:55;;;;;;;4.20;1.90;;;20.60;70.90;;;;;;4995858;28;20057;-79
2021/07/16 08:36:21;;;;;;;3.28;1.83;;;20.60;70.80;;;;;;4996904;28;20046;-78
2021/07/16 08:38:47;;;;;;;4.32;2.00;;;20.60;70.80;;;;;;4995222;28;20031;-79
2021/07/16 08:41:13;;;;;;;3.65;2.10;;;20.60;70.80;;;;;;4963582;28;20121;-80
2021/07/16 08:43:42;;;;;;;5.20;2.00;;;20.60;70.70;;;;;;4963232;28;20036;-78
2021/07/16 08:46:09;;;;;;;5.72;2.55;;;20.70;70.80;;;;;;4979339;28;20382;-80
2021/07/16 08:48:37;;;;;;;4.53;2.25;;;20.70;70.80;;;;;;4979221;28;20467;-77
2021/07/16 08:51:03;;;;;;;4.20;2.28;;;20.70;70.70;;;;;;4962968;28;20037;-77
2021/07/16 08:53:32;;;;;;;2.53;1.77;;;20.80;70.70;;;;;;4963023;28;20073;-77
2021/07/16 08:55:58;;;;;;;4.53;2.00;;;20.80;70.70;;;;;;4962961;28;20034;-80
2021/07/16 08:58:24;;;;;;;4.85;2.08;;;20.80;70.70;;;;;;4979182;28;20049;-78
2021/07/16 09:00:50;;;;;;;3.90;1.88;;;20.80;70.70;;;;;;4979730;28;20022;-79
2021/07/16 09:03:16;;;;;;;4.40;1.98;;;20.90;70.70;;;;;;4978817;28;20030;-77
2021/07/16 09:05:44;;;;;;;3.72;2.00;;;20.90;70.60;;;;;;4978500;28;20478;-78
2021/07/16 09:08:28;;;;;;;3.97;1.85;;;21.00;70.70;;;;;;4995028;28;20038;-78
2021/07/16 09:10:58;;;;;;;4.80;2.25;;;21.00;70.70;;;;;;4963474;28;20034;-78
2021/07/16 09:13:26;;;;;;;5.18;2.20;;;21.00;70.50;;;;;;4996164;28;20031;-77
2021/07/16 09:15:57;;;;;;;4.25;2.25;;;21.10;70.50;;;;;;4996050;28;20047;-78
2021/07/16 09:18:30;;;;;;;4.40;1.90;;;21.10;70.50;;;;;;4996100;28;20034;-78
2021/07/16 09:21:02;;;;;;;4.45;2.47;;;21.10;70.60;;;;;;4978622;28;20042;-78
2021/07/16 09:23:40;;;;;;;4.53;2.28;;;21.10;70.50;;;;;;4994791;28;20030;-78
2021/07/16 09:26:11;;;;;;;5.30;2.05;;;21.20;70.50;;;;;;4979145;28;20471;-77
2021/07/16 09:28:39;;;;;;;5.05;2.20;;;21.20;70.30;;;;;;4962267;28;20108;-78
2021/07/16 09:31:15;;;;;;;3.50;1.90;;;21.30;70.30;;;;;;4978230;28;20368;-77
2021/07/16 09:33:52;;;;;;;4.63;2.00;;;21.30;70.30;;;;;;4995194;28;20041;-78
2021/07/16 09:36:34;;;;;;;5.20;2.00;;;21.30;70.20;;;;;;4994350;28;20031;-78
2021/07/16 09:39:09;;;;;;;3.95;2.20;;;21.40;70.30;;;;;;4995685;28;20042;-77
2021/07/16 09:41:53;;;;;;;5.32;2.35;;;21.40;70.20;;;;;;4962861;28;20426;-77
2021/07/16 09:44:33;;;;;;;6.15;2.22;;;21.40;70.20;;;;;;4995353;28;20037;-78
2021/07/16 09:47:12;;;;;;;3.72;2.05;;;21.50;70.20;;;;;;4978704;28;20042;-78
2021/07/16 09:49:38;;;;;;;5.32;2.33;;;21.50;70.10;;;;;;4978096;28;20030;-78
2021/07/16 09:52:16;;;;;;;4.93;2.28;;;21.50;70.00;;;;;;4994292;28;20034;-78
2021/07/16 09:55:11;;;;;;;4.53;2.10;;;21.50;70.00;;;;;;4994855;28;20085;-78
2021/07/16 09:57:48;;;;;;;6.03;2.30;;;21.60;70.10;;;;;;4977737;28;20498;-78
2021/07/16 10:00:15;;;;;;;5.20;2.10;;;21.60;70.00;;;;;;4978433;28;20035;-78
2021/07/16 10:02:46;;;;;;;7.40;2.58;;;21.60;69.90;;;;;;4977820;28;20027;-77
2021/07/16 10:05:12;;;;;;;5.72;2.40;;;21.60;69.90;;;;;;4993982;28;20092;-77
2021/07/16 10:07:42;;;;;;;5.68;2.50;;;21.70;69.90;;;;;;4978353;28;20114;-77
2021/07/16 10:10:22;;;;;;;4.57;2.33;;;21.70;69.80;;;;;;4995081;28;20054;-78
2021/07/16 10:12:49;;;;;;;4.63;2.30;;;21.70;69.80;;;;;;4977239;28;20026;-78
2021/07/16 10:15:17;;;;;;;5.43;2.40;;;21.70;69.70;;;;;;4978045;28;20061;-78
2021/07/16 10:17:43;;;;;;;5.10;2.30;;;21.70;69.70;;;;;;4994532;28;20456;-78
2021/07/16 10:20:15;;;;;;;6.47;2.45;;;21.70;69.70;;;;;;4993907;28;20034;-78
2021/07/16 10:22:42;;;;;;;5.68;2.45;;;21.70;69.70;;;;;;4977538;28;20030;-77
2021/07/16 10:25:10;;;;;;;5.13;2.38;;;21.80;69.70;;;;;;4977422;28;20117;-77
2021/07/16 10:27:36;;;;;;;6.68;2.42;;;21.80;69.70;;;;;;4994743;28;20042;-77
2021/07/16 10:30:17;;;;;;;6.28;2.45;;;21.80;69.70;;;;;;4977329;28;20382;-77
2021/07/16 10:32:49;;;;;;;5.72;2.17;;;21.80;69.70;;;;;;4977107;28;20034;-78
2021/07/16 10:35:19;;;;;;;6.28;2.10;;;21.80;69.60;;;;;;4977269;28;20176;-77
2021/07/16 10:37:46;;;;;;;4.47;2.33;;;21.80;69.50;;;;;;4977352;28;20031;-77
2021/07/16 10:40:40;;;;;;;7.05;2.67;;;21.80;69.50;;;;;;4977254;28;20105;-77
2021/07/16 10:43:08;;;;;;;4.10;2.25;;;21.80;69.70;;;;;;4977036;28;20041;-78
2021/07/16 10:45:37;;;;;;;5.13;2.22;;;21.80;69.50;;;;;;4977050;28;20026;-78
2021/07/16 10:48:31;;;;;;;4.20;2.17;;;21.80;69.50;;;;;;4976805;28;20501;-77
2021/07/16 10:50:58;;;;;;;5.45;2.40;;;21.80;69.70;;;;;;4994961;28;20034;-77
2021/07/16 10:53:27;;;;;;;6.20;2.40;;;21.80;69.50;;;;;;4977090;28;20018;-78
2021/07/16 10:55:56;;;;;;;4.80;2.33;;;21.80;69.50;;;;;;4977653;28;20043;-78
2021/07/16 10:58:24;;;;;;;5.43;2.60;;;21.80;69.60;;;;;;4992849;28;20459;-77
2021/07/16 11:00:57;;;;;;;6.18;2.47;;;21.80;69.60;;;;;;4994353;28;20034;-77
2021/07/16 11:03:42;;;;;;;5.93;2.47;;;21.80;69.60;;;;;;4993140;28;20030;-76
2021/07/16 11:06:10;;;;;;;5.68;2.45;;;21.80;69.70;;;;;;4993443;28;20104;-79
2021/07/16 11:08:36;;;;;;;4.10;2.28;;;21.80;69.50;;;;;;4977193;28;20062;-77
2021/07/16 11:11:17;;;;;;;6.28;2.78;;;21.80;69.60;;;;;;4976871;28;20026;-76
2021/07/16 11:13:54;;;;;;;6.55;2.40;;;21.80;69.70;;;;;;4993101;28;20109;-77
2021/07/16 11:19:12;;;;;;;7.13;2.85;;;21.80;69.60;;;;;;4994350;28;20474;-77
2021/07/16 11:21:47;;;;;;;6.97;2.50;;;21.80;69.70;;;;;;4993612;28;20026;-76
2021/07/16 11:24:18;;;;;;;5.85;2.40;;;21.80;69.50;;;;;;4994970;28;20039;-76
2021/07/16 11:26:58;;;;;;;5.38;2.40;;;21.80;69.60;;;;;;4993988;28;20030;-76
2021/07/16 11:29:26;;;;;;;5.15;2.50;;;21.80;69.60;;;;;;4976585;28;20031;-76
2021/07/16 11:32:07;;;;;;;3.42;2.13;;;21.80;69.60;;;;;;4976623;28;20116;-76
2021/07/16 11:34:33;;;;;;;5.20;2.30;;;21.80;69.70;;;;;;4993406;28;20034;-75
2021/07/16 11:37:00;;;;;;;5.00;2.45;;;21.80;69.60;;;;;;4976172;28;20045;-76
2021/07/16 11:39:27;;;;;;;5.13;2.50;;;21.90;69.70;;;;;;4993915;28;20030;-77
2021/07/16 11:41:53;;;;;;;4.47;2.33;;;21.90;69.70;;;;;;4976655;28;20061;-76
2021/07/16 11:44:32;;;;;;;6.43;2.70;;;21.90;69.70;;;;;;4994675;28;20128;-76
2021/07/16 11:47:12;;;;;;;4.28;2.50;;;21.90;69.80;;;;;;4993976;28;20037;-76
2021/07/16 11:49:46;;;;;;;5.90;2.83;;;21.90;69.70;;;;;;4993996;28;20026;-76
2021/07/16 11:52:15;;;;;;;3.93;2.30;;;21.90;69.70;;;;;;4996861;28;20037;-76
2021/07/16 11:54:41;;;;;;;5.05;2.30;;;21.90;69.60;;;;;;4964134;28;20034;-77
2021/07/16 11:57:07;;;;;;;5.47;2.53;;;21.90;69.50;;;;;;4996906;28;20046;-77
2021/07/16 11:59:33;;;;;;;5.85;2.55;;;21.90;69.60;;;;;;4963752;28;20056;-76
2021/07/16 12:02:13;;;;;;;6.05;2.40;;;21.90;69.50;;;;;;4996481;28;20034;-76
2021/07/16 12:04:41;;;;;;;6.32;2.47;;;21.90;69.70;;;;;;4980082;28;20037;-76
2021/07/16 12:07:09;;;;;;;4.88;2.35;;;21.90;70.20;;;;;;4997228;28;20038;-77
2021/07/16 12:09:37;;;;;;;4.05;2.17;;;21.90;69.50;;;;;;4979856;28;20026;-78
2021/07/16 12:12:11;;;;;;;7.75;2.67;;;21.90;69.50;;;;;;4979951;28;20423;-76
2021/07/16 12:15:08;;;;;;;4.85;2.35;;;22.00;69.60;;;;;;4996925;28;20456;-78
2021/07/16 12:17:41;;;;;;;5.30;2.53;;;22.00;69.70;;;;;;4996279;28;20047;-77
2021/07/16 12:20:10;;;;;;;4.10;2.00;;;22.00;69.50;;;;;;4979858;28;20062;-78
2021/07/16 12:22:42;;;;;;;4.22;2.20;;;22.00;69.50;;;;;;4996211;28;20435;-77
2021/07/16 12:25:09;;;;;;;5.38;2.35;;;22.00;69.60;;;;;;4997688;28;20023;-77
2021/07/16 12:27:35;;;;;;;4.80;2.35;;;22.00;69.60;;;;;;4996073;28;20023;-78
2021/07/16 12:30:09;;;;;;;4.30;2.20;;;22.10;69.60;;;;;;4979331;28;20049;-77
2021/07/16 12:32:37;;;;;;;5.43;2.28;;;22.10;69.70;;;;;;4997415;28;20089;-77
2021/07/16 12:35:15;;;;;;;5.28;2.10;;;22.10;69.60;;;;;;4963194;28;20121;-78
2021/07/16 12:37:42;;;;;;;5.45;2.53;;;22.10;69.70;;;;;;4995431;28;20030;-77
2021/07/16 12:40:08;;;;;;;4.75;2.40;;;22.20;69.50;;;;;;4979404;28;20034;-77
2021/07/16 12:42:35;;;;;;;4.35;2.28;;;22.20;69.50;;;;;;4979227;28;20034;-77
2021/07/16 12:45:10;;;;;;;5.80;2.83;;;22.20;69.60;;;;;;4996982;28;20039;-77
2021/07/16 12:47:51;;;;;;;3.83;2.13;;;22.20;69.50;;;;;;4979391;28;20038;-78
2021/07/16 12:50:21;;;;;;;4.80;2.20;;;22.20;69.60;;;;;;4979391;28;20034;-77
2021/07/16 12:52:55;;;;;;;4.00;2.20;;;22.30;69.60;;;;;;4996693;28;20033;-77
2021/07/16 12:55:22;;;;;;;4.82;2.50;;;22.30;69.70;;;;;;4996922;28;20030;-78
2021/07/16 12:57:58;;;;;;;4.25;2.35;;;22.30;69.60;;;;;;4979784;28;20041;-77